الصفحة الرئيسية
METAR-TAF:

METAR-TAF

مطار :

مطار جومو كينياتا

نيروبي, كينيا

دائرة عرض: 01-19S, خط طول: 036-55E, ارتفاع: 1624 متر

مراقبة الطقس الحالي

تاريخ ووقت الإصدار 1ساعة و 2 دقيقة قبل الساعة 23:00UTC
ريح 5 عقدة من الجنوب الغربي
درجة الحرارة 13°درجة مئوية
الرطوبة 82%
ضغط 1023 hPa
الرؤية 10 كم أو أكثر
الغيوم لا تقل 1500 م ولا وجود لمزنة ركامية السحاب الأسود

METAR: HKJK 172300Z 22005KT CAVOK 13/10 Q1023 NOSIG

زمن: 03:02 (00:02 UTC)

توقعات

تاريخ ووقت الإصدار 13ساعات و 2 دقيقة قبل الساعة 11:00UTC
التوقعات صالحة من17 الساعة 12 UTC إلى 18 الساعة 18 UTC
ريح 10 عقدة من الجنوب/الجنوب الشرقي
الرؤية 10 كم أو أكثر
غيوم متفرقة على ارتفاع 2500 قدم
أصبح
من 18 الساعة 00 UTC إلى 18 الساعة 03 UTC
ريح 5 عقدة من الغرب/الجنوب الغربي
غيوم متفرقة على ارتفاع 1800 قدم
أصبح
من 18 الساعة 08 UTC إلى 18 الساعة 11 UTC
ريح 10 عقدة من الجنوب/الجنوب الشرقي
غيوم مفككة على ارتفاع 2600 قدم

TAF: HKJK 171100Z 1712/1818 15010KT 9999 SCT025 BECMG 1800/1803 24005KT SCT018 BECMG 1808/1811 15010KT BKN026

أرصاد الطقس والتوقعات من أكثر من 4000 مطار (تقارير الطقس للمطار METAR والتنبؤ بالطقس بالمطارTAF).

المحطات المتاحة هي النقط الصفراء والحمراء على الخريطة.

حرك المؤشر فوق النقطة لمعرفة اسم المحطة.

ثم انقر لمعرفة أرصاد وتوقعات الطقس.

لتغيير الخارطة: اضغط على الأزرار الخضراء مع رمز الصليب الأسود للتكبير. على الزر الأخضر مع شرطة للتصغير، أو على الأسهم الخضراء للخرائط المجاورة.


METAR-TAF: